sensor_id;sensor_type;location;lat;lon;timestamp;P1;durP1;ratioP1;P2;durP2;ratioP2
82163;SDS011;71736;38.734;-9.138;2023-10-09T00:02:11;9.10;;;5.10;;
82163;SDS011;71736;38.734;-9.138;2023-10-09T00:04:37;9.80;;;5.10;;
82163;SDS011;71736;38.734;-9.138;2023-10-09T00:07:06;9.30;;;5.00;;
82163;SDS011;71736;38.734;-9.138;2023-10-09T00:09:35;9.90;;;4.70;;
82163;SDS011;71736;38.734;-9.138;2023-10-09T00:12:16;9.00;;;5.70;;
82163;SDS011;71736;38.734;-9.138;2023-10-09T00:14:47;9.30;;;5.40;;
82163;SDS011;71736;38.734;-9.138;2023-10-09T00:17:18;10.10;;;5.10;;
82163;SDS011;71736;38.734;-9.138;2023-10-09T00:19:46;13.10;;;5.30;;
82163;SDS011;71736;38.734;-9.138;2023-10-09T00:22:13;12.30;;;5.60;;
82163;SDS011;71736;38.734;-9.138;2023-10-09T00:24:55;9.30;;;4.90;;
82163;SDS011;71736;38.734;-9.138;2023-10-09T00:27:37;12.30;;;5.20;;
82163;SDS011;71736;38.734;-9.138;2023-10-09T00:30:08;8.90;;;4.40;;
82163;SDS011;71736;38.734;-9.138;2023-10-09T00:32:36;11.70;;;4.90;;
82163;SDS011;71736;38.734;-9.138;2023-10-09T00:35:07;12.00;;;4.90;;
82163;SDS011;71736;38.734;-9.138;2023-10-09T00:37:52;9.90;;;5.00;;
82163;SDS011;71736;38.734;-9.138;2023-10-09T00:40:21;10.10;;;4.60;;
82163;SDS011;71736;38.734;-9.138;2023-10-09T00:42:53;12.90;;;5.40;;
82163;SDS011;71736;38.734;-9.138;2023-10-09T00:45:21;10.20;;;5.40;;
82163;SDS011;71736;38.734;-9.138;2023-10-09T00:47:53;10.90;;;5.40;;
82163;SDS011;71736;38.734;-9.138;2023-10-09T00:50:23;13.90;;;5.30;;
82163;SDS011;71736;38.734;-9.138;2023-10-09T00:52:54;9.90;;;4.80;;
82163;SDS011;71736;38.734;-9.138;2023-10-09T00:55:37;9.90;;;4.20;;
82163;SDS011;71736;38.734;-9.138;2023-10-09T00:58:20;8.50;;;4.10;;
82163;SDS011;71736;38.734;-9.138;2023-10-09T01:00:49;10.00;;;4.30;;
82163;SDS011;71736;38.734;-9.138;2023-10-09T01:03:17;9.00;;;4.60;;
82163;SDS011;71736;38.734;-9.138;2023-10-09T01:05:51;9.10;;;4.30;;
82163;SDS011;71736;38.734;-9.138;2023-10-09T01:08:34;10.80;;;5.50;;
82163;SDS011;71736;38.734;-9.138;2023-10-09T01:11:06;8.70;;;4.40;;
82163;SDS011;71736;38.734;-9.138;2023-10-09T01:13:39;9.90;;;4.90;;
82163;SDS011;71736;38.734;-9.138;2023-10-09T01:16:18;10.50;;;5.00;;
82163;SDS011;71736;38.734;-9.138;2023-10-09T01:18:48;9.80;;;4.70;;
82163;SDS011;71736;38.734;-9.138;2023-10-09T01:21:17;8.40;;;4.40;;
82163;SDS011;71736;38.734;-9.138;2023-10-09T01:23:48;8.00;;;4.30;;
82163;SDS011;71736;38.734;-9.138;2023-10-09T01:26:39;8.00;;;4.30;;
82163;SDS011;71736;38.734;-9.138;2023-10-09T01:29:10;18.70;;;6.10;;
82163;SDS011;71736;38.734;-9.138;2023-10-09T01:31:46;9.90;;;4.80;;
82163;SDS011;71736;38.734;-9.138;2023-10-09T01:34:36;9.10;;;4.30;;
82163;SDS011;71736;38.734;-9.138;2023-10-09T01:37:14;9.00;;;4.70;;
82163;SDS011;71736;38.734;-9.138;2023-10-09T01:39:47;11.40;;;5.00;;
82163;SDS011;71736;38.734;-9.138;2023-10-09T01:42:17;8.40;;;4.60;;
82163;SDS011;71736;38.734;-9.138;2023-10-09T01:45:09;7.20;;;3.50;;
82163;SDS011;71736;38.734;-9.138;2023-10-09T01:47:38;11.60;;;4.20;;
82163;SDS011;71736;38.734;-9.138;2023-10-09T01:50:05;7.80;;;4.00;;
82163;SDS011;71736;38.734;-9.138;2023-10-09T01:52:37;9.60;;;4.40;;
82163;SDS011;71736;38.734;-9.138;2023-10-09T01:55:03;8.50;;;4.10;;
82163;SDS011;71736;38.734;-9.138;2023-10-09T01:57:32;10.70;;;4.10;;
82163;SDS011;71736;38.734;-9.138;2023-10-09T01:59:59;10.30;;;4.60;;
82163;SDS011;71736;38.734;-9.138;2023-10-09T02:02:24;8.90;;;4.70;;
82163;SDS011;71736;38.734;-9.138;2023-10-09T02:05:00;8.60;;;4.10;;
82163;SDS011;71736;38.734;-9.138;2023-10-09T02:07:39;12.20;;;4.70;;
82163;SDS011;71736;38.734;-9.138;2023-10-09T02:10:25;10.20;;;4.10;;
82163;SDS011;71736;38.734;-9.138;2023-10-09T02:12:57;8.50;;;4.70;;
82163;SDS011;71736;38.734;-9.138;2023-10-09T02:15:26;11.60;;;4.80;;
82163;SDS011;71736;38.734;-9.138;2023-10-09T02:18:18;9.80;;;4.40;;
82163;SDS011;71736;38.734;-9.138;2023-10-09T02:23:37;8.70;;;4.30;;
82163;SDS011;71736;38.734;-9.138;2023-10-09T02:26:09;6.80;;;4.10;;
82163;SDS011;71736;38.734;-9.138;2023-10-09T02:28:43;10.30;;;4.00;;
82163;SDS011;71736;38.734;-9.138;2023-10-09T02:31:09;9.00;;;4.50;;
82163;SDS011;71736;38.734;-9.138;2023-10-09T02:33:36;8.80;;;4.80;;
82163;SDS011;71736;38.734;-9.138;2023-10-09T02:36:04;9.20;;;4.40;;
82163;SDS011;71736;38.734;-9.138;2023-10-09T02:38:33;8.70;;;4.40;;
82163;SDS011;71736;38.734;-9.138;2023-10-09T02:41:05;6.80;;;3.90;;
82163;SDS011;71736;38.734;-9.138;2023-10-09T02:43:32;8.50;;;4.20;;
82163;SDS011;71736;38.734;-9.138;2023-10-09T02:46:15;10.50;;;4.00;;
82163;SDS011;71736;38.734;-9.138;2023-10-09T02:48:49;9.40;;;3.70;;
82163;SDS011;71736;38.734;-9.138;2023-10-09T02:54:03;7.80;;;4.00;;
82163;SDS011;71736;38.734;-9.138;2023-10-09T02:56:52;10.30;;;4.00;;
82163;SDS011;71736;38.734;-9.138;2023-10-09T02:59:30;9.40;;;4.00;;
82163;SDS011;71736;38.734;-9.138;2023-10-09T03:01:56;7.40;;;4.30;;
82163;SDS011;71736;38.734;-9.138;2023-10-09T03:04:22;6.40;;;3.70;;
82163;SDS011;71736;38.734;-9.138;2023-10-09T03:06:48;9.80;;;4.30;;
82163;SDS011;71736;38.734;-9.138;2023-10-09T03:09:21;10.00;;;4.10;;
82163;SDS011;71736;38.734;-9.138;2023-10-09T03:11:52;9.40;;;4.80;;
82163;SDS011;71736;38.734;-9.138;2023-10-09T03:14:22;8.40;;;4.20;;
82163;SDS011;71736;38.734;-9.138;2023-10-09T03:19:26;7.30;;;3.70;;
82163;SDS011;71736;38.734;-9.138;2023-10-09T03:22:05;11.50;;;4.00;;
82163;SDS011;71736;38.734;-9.138;2023-10-09T03:24:36;9.80;;;4.10;;
82163;SDS011;71736;38.734;-9.138;2023-10-09T03:27:04;8.90;;;4.10;;
82163;SDS011;71736;38.734;-9.138;2023-10-09T03:29:30;10.00;;;4.10;;
82163;SDS011;71736;38.734;-9.138;2023-10-09T03:31:55;7.00;;;3.70;;
82163;SDS011;71736;38.734;-9.138;2023-10-09T03:34:22;10.30;;;4.20;;
82163;SDS011;71736;38.734;-9.138;2023-10-09T03:36:49;9.00;;;3.90;;
82163;SDS011;71736;38.734;-9.138;2023-10-09T03:39:29;8.80;;;4.30;;
82163;SDS011;71736;38.734;-9.138;2023-10-09T03:42:12;8.20;;;4.10;;
82163;SDS011;71736;38.734;-9.138;2023-10-09T03:44:44;7.60;;;4.00;;
82163;SDS011;71736;38.734;-9.138;2023-10-09T03:47:17;6.60;;;4.00;;
82163;SDS011;71736;38.734;-9.138;2023-10-09T03:49:47;10.90;;;4.70;;
82163;SDS011;71736;38.734;-9.138;2023-10-09T03:52:17;10.60;;;4.70;;
82163;SDS011;71736;38.734;-9.138;2023-10-09T03:54:43;7.30;;;4.30;;
82163;SDS011;71736;38.734;-9.138;2023-10-09T03:57:12;9.00;;;4.40;;
82163;SDS011;71736;38.734;-9.138;2023-10-09T03:59:47;7.80;;;4.00;;
82163;SDS011;71736;38.734;-9.138;2023-10-09T04:02:13;8.80;;;4.40;;
82163;SDS011;71736;38.734;-9.138;2023-10-09T04:04:40;9.10;;;4.00;;
82163;SDS011;71736;38.734;-9.138;2023-10-09T04:07:11;12.20;;;4.70;;
82163;SDS011;71736;38.734;-9.138;2023-10-09T04:09:36;8.20;;;3.90;;
82163;SDS011;71736;38.734;-9.138;2023-10-09T04:12:04;9.20;;;4.10;;
82163;SDS011;71736;38.734;-9.138;2023-10-09T04:14:41;7.20;;;4.20;;
82163;SDS011;71736;38.734;-9.138;2023-10-09T04:17:22;6.40;;;4.40;;
82163;SDS011;71736;38.734;-9.138;2023-10-09T04:19:48;8.10;;;4.00;;
82163;SDS011;71736;38.734;-9.138;2023-10-09T04:22:37;10.00;;;4.00;;
82163;SDS011;71736;38.734;-9.138;2023-10-09T04:25:19;12.20;;;5.20;;
82163;SDS011;71736;38.734;-9.138;2023-10-09T04:27:56;8.80;;;4.40;;
82163;SDS011;71736;38.734;-9.138;2023-10-09T04:30:38;7.00;;;3.70;;
82163;SDS011;71736;38.734;-9.138;2023-10-09T04:33:19;9.80;;;4.20;;
82163;SDS011;71736;38.734;-9.138;2023-10-09T04:36:06;12.30;;;4.90;;
82163;SDS011;71736;38.734;-9.138;2023-10-09T04:38:45;7.30;;;4.70;;
82163;SDS011;71736;38.734;-9.138;2023-10-09T04:41:40;10.80;;;4.50;;
82163;SDS011;71736;38.734;-9.138;2023-10-09T04:44:08;8.50;;;4.40;;
82163;SDS011;71736;38.734;-9.138;2023-10-09T04:46:48;8.70;;;4.30;;
82163;SDS011;71736;38.734;-9.138;2023-10-09T04:49:44;8.90;;;4.10;;
82163;SDS011;71736;38.734;-9.138;2023-10-09T04:52:21;13.00;;;4.20;;
82163;SDS011;71736;38.734;-9.138;2023-10-09T04:54:53;10.80;;;4.10;;
82163;SDS011;71736;38.734;-9.138;2023-10-09T04:57:37;9.40;;;3.70;;
82163;SDS011;71736;38.734;-9.138;2023-10-09T05:00:24;8.70;;;4.40;;
82163;SDS011;71736;38.734;-9.138;2023-10-09T05:02:59;10.80;;;4.10;;
82163;SDS011;71736;38.734;-9.138;2023-10-09T05:05:32;7.60;;;3.90;;
82163;SDS011;71736;38.734;-9.138;2023-10-09T05:08:07;9.60;;;4.30;;
82163;SDS011;71736;38.734;-9.138;2023-10-09T05:13:29;10.60;;;4.40;;
82163;SDS011;71736;38.734;-9.138;2023-10-09T05:18:32;8.00;;;3.80;;
82163;SDS011;71736;38.734;-9.138;2023-10-09T05:21:03;7.80;;;5.40;;
82163;SDS011;71736;38.734;-9.138;2023-10-09T05:23:40;10.10;;;5.30;;
82163;SDS011;71736;38.734;-9.138;2023-10-09T05:29:30;9.40;;;6.10;;
82163;SDS011;71736;38.734;-9.138;2023-10-09T05:31:59;15.70;;;6.90;;
82163;SDS011;71736;38.734;-9.138;2023-10-09T05:34:40;11.80;;;6.10;;
82163;SDS011;71736;38.734;-9.138;2023-10-09T05:37:26;14.20;;;6.60;;
82163;SDS011;71736;38.734;-9.138;2023-10-09T05:39:59;14.90;;;7.20;;
82163;SDS011;71736;38.734;-9.138;2023-10-09T05:42:26;10.20;;;6.70;;
82163;SDS011;71736;38.734;-9.138;2023-10-09T05:45:08;11.20;;;6.40;;
82163;SDS011;71736;38.734;-9.138;2023-10-09T05:50:27;20.80;;;7.70;;
82163;SDS011;71736;38.734;-9.138;2023-10-09T05:52:56;15.10;;;7.30;;
82163;SDS011;71736;38.734;-9.138;2023-10-09T05:55:28;11.90;;;6.70;;
82163;SDS011;71736;38.734;-9.138;2023-10-09T05:58:14;15.10;;;7.10;;
82163;SDS011;71736;38.734;-9.138;2023-10-09T06:00:58;15.10;;;7.70;;
82163;SDS011;71736;38.734;-9.138;2023-10-09T06:03:42;11.70;;;7.10;;
82163;SDS011;71736;38.734;-9.138;2023-10-09T06:06:14;13.10;;;7.70;;
82163;SDS011;71736;38.734;-9.138;2023-10-09T06:11:43;13.70;;;8.90;;
82163;SDS011;71736;38.734;-9.138;2023-10-09T06:14:20;15.70;;;7.40;;
82163;SDS011;71736;38.734;-9.138;2023-10-09T06:16:53;13.00;;;7.70;;
82163;SDS011;71736;38.734;-9.138;2023-10-09T06:19:21;10.90;;;7.30;;
82163;SDS011;71736;38.734;-9.138;2023-10-09T06:21:47;14.10;;;7.40;;
82163;SDS011;71736;38.734;-9.138;2023-10-09T06:24:32;13.40;;;7.30;;
82163;SDS011;71736;38.734;-9.138;2023-10-09T06:27:10;14.30;;;7.50;;
82163;SDS011;71736;38.734;-9.138;2023-10-09T06:29:37;12.50;;;8.40;;
82163;SDS011;71736;38.734;-9.138;2023-10-09T06:32:14;14.60;;;7.80;;
82163;SDS011;71736;38.734;-9.138;2023-10-09T06:34:52;12.90;;;8.00;;
82163;SDS011;71736;38.734;-9.138;2023-10-09T06:37:22;14.40;;;7.60;;
82163;SDS011;71736;38.734;-9.138;2023-10-09T06:39:49;16.60;;;7.90;;
82163;SDS011;71736;38.734;-9.138;2023-10-09T06:42:15;12.80;;;7.40;;
82163;SDS011;71736;38.734;-9.138;2023-10-09T06:45:03;15.10;;;8.20;;
82163;SDS011;71736;38.734;-9.138;2023-10-09T06:47:38;15.30;;;9.50;;
82163;SDS011;71736;38.734;-9.138;2023-10-09T06:50:09;17.10;;;7.30;;
82163;SDS011;71736;38.734;-9.138;2023-10-09T06:52:50;14.40;;;7.50;;
82163;SDS011;71736;38.734;-9.138;2023-10-09T06:55:25;15.10;;;7.60;;
82163;SDS011;71736;38.734;-9.138;2023-10-09T06:58:02;16.00;;;9.10;;
82163;SDS011;71736;38.734;-9.138;2023-10-09T07:00:39;15.90;;;8.70;;
82163;SDS011;71736;38.734;-9.138;2023-10-09T07:03:19;16.20;;;8.70;;
82163;SDS011;71736;38.734;-9.138;2023-10-09T07:06:04;14.10;;;7.80;;
82163;SDS011;71736;38.734;-9.138;2023-10-09T07:08:55;17.20;;;8.80;;
82163;SDS011;71736;38.734;-9.138;2023-10-09T07:11:34;14.00;;;7.80;;
82163;SDS011;71736;38.734;-9.138;2023-10-09T07:14:09;23.70;;;9.10;;
82163;SDS011;71736;38.734;-9.138;2023-10-09T07:16:53;12.30;;;7.70;;
82163;SDS011;71736;38.734;-9.138;2023-10-09T07:19:23;14.60;;;7.70;;
82163;SDS011;71736;38.734;-9.138;2023-10-09T07:22:12;15.70;;;7.50;;
82163;SDS011;71736;38.734;-9.138;2023-10-09T07:24:50;11.90;;;7.60;;
82163;SDS011;71736;38.734;-9.138;2023-10-09T07:27:27;15.40;;;8.40;;
82163;SDS011;71736;38.734;-9.138;2023-10-09T07:30:30;13.60;;;7.00;;
82163;SDS011;71736;38.734;-9.138;2023-10-09T07:32:56;21.00;;;7.30;;
82163;SDS011;71736;38.734;-9.138;2023-10-09T07:38:10;13.50;;;6.40;;
82163;SDS011;71736;38.734;-9.138;2023-10-09T07:40:39;13.80;;;7.20;;
82163;SDS011;71736;38.734;-9.138;2023-10-09T07:43:24;14.20;;;7.00;;
82163;SDS011;71736;38.734;-9.138;2023-10-09T07:46:17;12.00;;;7.30;;
82163;SDS011;71736;38.734;-9.138;2023-10-09T07:48:58;12.10;;;7.90;;
82163;SDS011;71736;38.734;-9.138;2023-10-09T07:51:33;12.90;;;7.30;;
82163;SDS011;71736;38.734;-9.138;2023-10-09T07:54:00;13.90;;;7.70;;
82163;SDS011;71736;38.734;-9.138;2023-10-09T07:56:38;16.10;;;7.70;;
82163;SDS011;71736;38.734;-9.138;2023-10-09T07:59:10;12.10;;;7.60;;
82163;SDS011;71736;38.734;-9.138;2023-10-09T08:01:43;13.10;;;7.50;;
82163;SDS011;71736;38.734;-9.138;2023-10-09T08:04:27;16.30;;;6.60;;
82163;SDS011;71736;38.734;-9.138;2023-10-09T08:07:06;16.10;;;9.00;;
82163;SDS011;71736;38.734;-9.138;2023-10-09T08:09:33;11.10;;;7.40;;
82163;SDS011;71736;38.734;-9.138;2023-10-09T08:12:34;14.30;;;8.60;;
82163;SDS011;71736;38.734;-9.138;2023-10-09T08:15:15;10.20;;;7.00;;
82163;SDS011;71736;38.734;-9.138;2023-10-09T08:17:44;18.50;;;8.30;;
82163;SDS011;71736;38.734;-9.138;2023-10-09T08:20:20;14.70;;;8.00;;
82163;SDS011;71736;38.734;-9.138;2023-10-09T08:22:51;14.40;;;7.70;;
82163;SDS011;71736;38.734;-9.138;2023-10-09T08:25:18;15.50;;;8.50;;
82163;SDS011;71736;38.734;-9.138;2023-10-09T08:28:02;15.00;;;8.20;;
82163;SDS011;71736;38.734;-9.138;2023-10-09T08:30:40;11.90;;;8.00;;
82163;SDS011;71736;38.734;-9.138;2023-10-09T08:33:18;13.20;;;7.70;;
82163;SDS011;71736;38.734;-9.138;2023-10-09T08:35:53;13.00;;;7.10;;
82163;SDS011;71736;38.734;-9.138;2023-10-09T08:38:33;14.80;;;8.80;;
82163;SDS011;71736;38.734;-9.138;2023-10-09T08:41:06;15.70;;;8.40;;
82163;SDS011;71736;38.734;-9.138;2023-10-09T08:43:34;12.80;;;8.50;;
82163;SDS011;71736;38.734;-9.138;2023-10-09T08:46:01;14.80;;;8.50;;
82163;SDS011;71736;38.734;-9.138;2023-10-09T08:48:28;18.80;;;9.20;;
82163;SDS011;71736;38.734;-9.138;2023-10-09T08:50:55;13.20;;;8.70;;
82163;SDS011;71736;38.734;-9.138;2023-10-09T08:53:21;15.80;;;9.50;;
82163;SDS011;71736;38.734;-9.138;2023-10-09T08:55:49;20.20;;;9.40;;
82163;SDS011;71736;38.734;-9.138;2023-10-09T08:58:15;18.80;;;9.00;;
82163;SDS011;71736;38.734;-9.138;2023-10-09T09:01:07;18.00;;;9.70;;
82163;SDS011;71736;38.734;-9.138;2023-10-09T09:03:39;18.00;;;8.70;;
82163;SDS011;71736;38.734;-9.138;2023-10-09T09:06:07;14.50;;;8.50;;
82163;SDS011;71736;38.734;-9.138;2023-10-09T09:08:33;19.60;;;13.90;;
82163;SDS011;71736;38.734;-9.138;2023-10-09T09:11:07;14.90;;;8.90;;
82163;SDS011;71736;38.734;-9.138;2023-10-09T09:13:38;13.70;;;8.60;;
82163;SDS011;71736;38.734;-9.138;2023-10-09T09:16:27;12.30;;;7.40;;
82163;SDS011;71736;38.734;-9.138;2023-10-09T09:21:33;15.00;;;8.70;;
82163;SDS011;71736;38.734;-9.138;2023-10-09T09:24:10;14.60;;;7.70;;
82163;SDS011;71736;38.734;-9.138;2023-10-09T09:26:56;15.20;;;8.40;;
82163;SDS011;71736;38.734;-9.138;2023-10-09T09:32:12;11.70;;;7.80;;
82163;SDS011;71736;38.734;-9.138;2023-10-09T09:34:48;15.70;;;8.30;;
82163;SDS011;71736;38.734;-9.138;2023-10-09T09:37:19;12.30;;;7.60;;
82163;SDS011;71736;38.734;-9.138;2023-10-09T09:39:46;13.90;;;8.00;;
82163;SDS011;71736;38.734;-9.138;2023-10-09T09:42:15;14.00;;;7.90;;
82163;SDS011;71736;38.734;-9.138;2023-10-09T09:44:50;13.10;;;7.50;;
82163;SDS011;71736;38.734;-9.138;2023-10-09T09:47:16;14.10;;;7.10;;
82163;SDS011;71736;38.734;-9.138;2023-10-09T09:49:55;12.90;;;7.30;;
82163;SDS011;71736;38.734;-9.138;2023-10-09T09:52:36;14.40;;;7.80;;
82163;SDS011;71736;38.734;-9.138;2023-10-09T09:55:09;10.00;;;6.80;;
82163;SDS011;71736;38.734;-9.138;2023-10-09T09:57:46;13.50;;;7.10;;
82163;SDS011;71736;38.734;-9.138;2023-10-09T10:00:16;10.80;;;6.80;;
82163;SDS011;71736;38.734;-9.138;2023-10-09T10:03:11;10.40;;;5.80;;
82163;SDS011;71736;38.734;-9.138;2023-10-09T10:05:39;11.00;;;7.50;;
82163;SDS011;71736;38.734;-9.138;2023-10-09T10:08:07;12.60;;;7.10;;
82163;SDS011;71736;38.734;-9.138;2023-10-09T10:10:42;11.40;;;6.40;;
82163;SDS011;71736;38.734;-9.138;2023-10-09T10:16:11;9.20;;;6.10;;
82163;SDS011;71736;38.734;-9.138;2023-10-09T10:21:50;9.00;;;5.70;;
82163;SDS011;71736;38.734;-9.138;2023-10-09T10:27:17;11.50;;;5.20;;
82163;SDS011;71736;38.734;-9.138;2023-10-09T10:35:20;9.90;;;5.60;;
82163;SDS011;71736;38.734;-9.138;2023-10-09T10:38:00;9.20;;;5.40;;
82163;SDS011;71736;38.734;-9.138;2023-10-09T10:40:39;8.30;;;4.30;;
82163;SDS011;71736;38.734;-9.138;2023-10-09T10:43:17;11.20;;;5.30;;
82163;SDS011;71736;38.734;-9.138;2023-10-09T10:46:03;12.90;;;5.60;;
82163;SDS011;71736;38.734;-9.138;2023-10-09T10:48:55;11.10;;;5.60;;
82163;SDS011;71736;38.734;-9.138;2023-10-09T10:51:29;8.30;;;5.20;;
82163;SDS011;71736;38.734;-9.138;2023-10-09T10:54:03;8.40;;;5.60;;
82163;SDS011;71736;38.734;-9.138;2023-10-09T10:56:48;6.90;;;4.80;;
82163;SDS011;71736;38.734;-9.138;2023-10-09T10:59:14;7.50;;;5.10;;
82163;SDS011;71736;38.734;-9.138;2023-10-09T11:01:48;8.40;;;5.00;;
82163;SDS011;71736;38.734;-9.138;2023-10-09T11:04:34;6.90;;;5.20;;
82163;SDS011;71736;38.734;-9.138;2023-10-09T11:07:10;10.50;;;6.50;;
82163;SDS011;71736;38.734;-9.138;2023-10-09T11:09:56;7.70;;;5.70;;
82163;SDS011;71736;38.734;-9.138;2023-10-09T11:12:29;9.80;;;5.00;;
82163;SDS011;71736;38.734;-9.138;2023-10-09T11:15:10;6.50;;;5.20;;
82163;SDS011;71736;38.734;-9.138;2023-10-09T11:18:07;11.80;;;5.30;;
82163;SDS011;71736;38.734;-9.138;2023-10-09T11:20:36;12.00;;;6.70;;
82163;SDS011;71736;38.734;-9.138;2023-10-09T11:23:03;10.70;;;5.90;;
82163;SDS011;71736;38.734;-9.138;2023-10-09T11:25:39;10.80;;;5.40;;
82163;SDS011;71736;38.734;-9.138;2023-10-09T11:28:19;8.60;;;5.40;;
82163;SDS011;71736;38.734;-9.138;2023-10-09T11:31:10;11.20;;;5.30;;
82163;SDS011;71736;38.734;-9.138;2023-10-09T11:33:46;13.00;;;5.30;;
82163;SDS011;71736;38.734;-9.138;2023-10-09T11:36:17;10.90;;;5.90;;
82163;SDS011;71736;38.734;-9.138;2023-10-09T11:38:46;11.90;;;6.20;;
82163;SDS011;71736;38.734;-9.138;2023-10-09T11:41:19;11.30;;;7.10;;
82163;SDS011;71736;38.734;-9.138;2023-10-09T11:43:54;11.70;;;6.40;;
82163;SDS011;71736;38.734;-9.138;2023-10-09T11:46:22;11.90;;;6.70;;
82163;SDS011;71736;38.734;-9.138;2023-10-09T11:49:23;9.40;;;6.10;;
82163;SDS011;71736;38.734;-9.138;2023-10-09T11:52:09;9.90;;;6.70;;
82163;SDS011;71736;38.734;-9.138;2023-10-09T11:54:54;9.40;;;6.10;;
82163;SDS011;71736;38.734;-9.138;2023-10-09T11:57:21;9.70;;;5.70;;
82163;SDS011;71736;38.734;-9.138;2023-10-09T11:59:56;9.40;;;6.60;;
82163;SDS011;71736;38.734;-9.138;2023-10-09T12:02:23;10.40;;;6.10;;
82163;SDS011;71736;38.734;-9.138;2023-10-09T12:04:49;12.00;;;6.00;;
82163;SDS011;71736;38.734;-9.138;2023-10-09T12:07:14;8.40;;;5.50;;
82163;SDS011;71736;38.734;-9.138;2023-10-09T12:09:40;9.80;;;6.00;;
82163;SDS011;71736;38.734;-9.138;2023-10-09T12:12:06;10.20;;;6.00;;
82163;SDS011;71736;38.734;-9.138;2023-10-09T12:14:34;9.00;;;6.90;;
82163;SDS011;71736;38.734;-9.138;2023-10-09T12:17:09;9.10;;;5.70;;
82163;SDS011;71736;38.734;-9.138;2023-10-09T12:19:38;10.30;;;6.00;;
82163;SDS011;71736;38.734;-9.138;2023-10-09T12:22:05;13.00;;;5.50;;
82163;SDS011;71736;38.734;-9.138;2023-10-09T12:24:32;7.90;;;5.50;;
82163;SDS011;71736;38.734;-9.138;2023-10-09T12:26:58;9.70;;;5.70;;
82163;SDS011;71736;38.734;-9.138;2023-10-09T12:29:25;10.20;;;5.90;;
82163;SDS011;71736;38.734;-9.138;2023-10-09T12:31:58;10.10;;;5.50;;
82163;SDS011;71736;38.734;-9.138;2023-10-09T12:34:23;11.80;;;5.80;;
82163;SDS011;71736;38.734;-9.138;2023-10-09T12:36:56;10.70;;;7.10;;
82163;SDS011;71736;38.734;-9.138;2023-10-09T12:39:26;10.40;;;6.50;;
82163;SDS011;71736;38.734;-9.138;2023-10-09T12:41:58;11.10;;;6.40;;
82163;SDS011;71736;38.734;-9.138;2023-10-09T12:44:35;8.20;;;5.60;;
82163;SDS011;71736;38.734;-9.138;2023-10-09T12:47:08;10.30;;;6.30;;
82163;SDS011;71736;38.734;-9.138;2023-10-09T12:49:36;8.90;;;5.60;;
82163;SDS011;71736;38.734;-9.138;2023-10-09T12:52:06;10.20;;;5.90;;
82163;SDS011;71736;38.734;-9.138;2023-10-09T12:54:45;12.40;;;6.60;;
82163;SDS011;71736;38.734;-9.138;2023-10-09T12:59:41;10.40;;;5.00;;
82163;SDS011;71736;38.734;-9.138;2023-10-09T13:02:14;12.50;;;5.00;;
82163;SDS011;71736;38.734;-9.138;2023-10-09T13:04:59;8.20;;;5.00;;
82163;SDS011;71736;38.734;-9.138;2023-10-09T13:07:30;9.80;;;4.90;;
82163;SDS011;71736;38.734;-9.138;2023-10-09T13:09:56;11.90;;;4.40;;
82163;SDS011;71736;38.734;-9.138;2023-10-09T13:12:34;8.10;;;4.20;;
82163;SDS011;71736;38.734;-9.138;2023-10-09T13:15:10;7.40;;;4.40;;
82163;SDS011;71736;38.734;-9.138;2023-10-09T13:17:39;8.20;;;4.40;;
82163;SDS011;71736;38.734;-9.138;2023-10-09T13:20:06;7.20;;;4.50;;
82163;SDS011;71736;38.734;-9.138;2023-10-09T13:22:41;8.30;;;4.50;;
82163;SDS011;71736;38.734;-9.138;2023-10-09T13:25:14;7.40;;;4.90;;
82163;SDS011;71736;38.734;-9.138;2023-10-09T13:27:44;9.10;;;4.30;;
82163;SDS011;71736;38.734;-9.138;2023-10-09T13:30:17;8.60;;;4.90;;
82163;SDS011;71736;38.734;-9.138;2023-10-09T13:32:49;12.30;;;5.30;;
82163;SDS011;71736;38.734;-9.138;2023-10-09T13:35:19;10.90;;;5.60;;
82163;SDS011;71736;38.734;-9.138;2023-10-09T13:37:47;11.80;;;6.30;;
82163;SDS011;71736;38.734;-9.138;2023-10-09T13:40:20;13.60;;;6.20;;
82163;SDS011;71736;38.734;-9.138;2023-10-09T13:42:55;11.40;;;5.80;;
82163;SDS011;71736;38.734;-9.138;2023-10-09T13:45:26;11.30;;;5.50;;
82163;SDS011;71736;38.734;-9.138;2023-10-09T13:47:58;12.80;;;5.40;;
82163;SDS011;71736;38.734;-9.138;2023-10-09T13:50:29;12.00;;;4.90;;
82163;SDS011;71736;38.734;-9.138;2023-10-09T13:53:01;11.40;;;5.50;;
82163;SDS011;71736;38.734;-9.138;2023-10-09T13:55:28;12.50;;;5.60;;
82163;SDS011;71736;38.734;-9.138;2023-10-09T13:57:59;10.60;;;5.30;;
82163;SDS011;71736;38.734;-9.138;2023-10-09T14:00:24;10.60;;;6.10;;
82163;SDS011;71736;38.734;-9.138;2023-10-09T14:03:00;9.90;;;5.50;;
82163;SDS011;71736;38.734;-9.138;2023-10-09T14:05:37;8.00;;;5.20;;
82163;SDS011;71736;38.734;-9.138;2023-10-09T14:08:09;10.20;;;5.30;;
82163;SDS011;71736;38.734;-9.138;2023-10-09T14:10:37;8.70;;;5.00;;
82163;SDS011;71736;38.734;-9.138;2023-10-09T14:13:04;12.20;;;5.90;;
82163;SDS011;71736;38.734;-9.138;2023-10-09T14:15:37;6.50;;;4.80;;
82163;SDS011;71736;38.734;-9.138;2023-10-09T14:18:06;8.80;;;5.30;;
82163;SDS011;71736;38.734;-9.138;2023-10-09T14:20:34;10.80;;;6.00;;
82163;SDS011;71736;38.734;-9.138;2023-10-09T14:23:00;9.20;;;5.20;;
82163;SDS011;71736;38.734;-9.138;2023-10-09T14:25:35;10.70;;;6.10;;
82163;SDS011;71736;38.734;-9.138;2023-10-09T14:28:05;10.40;;;5.70;;
82163;SDS011;71736;38.734;-9.138;2023-10-09T14:30:36;9.00;;;5.30;;
82163;SDS011;71736;38.734;-9.138;2023-10-09T14:33:08;10.70;;;5.90;;
82163;SDS011;71736;38.734;-9.138;2023-10-09T14:35:38;13.70;;;6.10;;
82163;SDS011;71736;38.734;-9.138;2023-10-09T14:38:11;13.70;;;6.00;;
82163;SDS011;71736;38.734;-9.138;2023-10-09T14:40:40;10.80;;;5.70;;
82163;SDS011;71736;38.734;-9.138;2023-10-09T14:43:09;11.60;;;5.90;;
82163;SDS011;71736;38.734;-9.138;2023-10-09T14:45:47;8.50;;;4.80;;
82163;SDS011;71736;38.734;-9.138;2023-10-09T14:48:18;10.90;;;5.70;;
82163;SDS011;71736;38.734;-9.138;2023-10-09T14:50:51;11.20;;;6.20;;
82163;SDS011;71736;38.734;-9.138;2023-10-09T14:53:29;8.80;;;5.40;;
82163;SDS011;71736;38.734;-9.138;2023-10-09T14:55:55;12.60;;;6.30;;
82163;SDS011;71736;38.734;-9.138;2023-10-09T14:58:22;7.30;;;5.20;;
82163;SDS011;71736;38.734;-9.138;2023-10-09T15:00:51;12.10;;;6.60;;
82163;SDS011;71736;38.734;-9.138;2023-10-09T15:03:18;16.10;;;6.30;;
82163;SDS011;71736;38.734;-9.138;2023-10-09T15:05:47;10.80;;;5.60;;
82163;SDS011;71736;38.734;-9.138;2023-10-09T15:08:13;8.00;;;5.10;;
82163;SDS011;71736;38.734;-9.138;2023-10-09T15:10:48;12.40;;;5.90;;
82163;SDS011;71736;38.734;-9.138;2023-10-09T15:13:16;9.90;;;5.80;;
82163;SDS011;71736;38.734;-9.138;2023-10-09T15:15:43;12.10;;;5.50;;
82163;SDS011;71736;38.734;-9.138;2023-10-09T15:18:10;11.40;;;5.80;;
82163;SDS011;71736;38.734;-9.138;2023-10-09T15:20:38;12.30;;;6.20;;
82163;SDS011;71736;38.734;-9.138;2023-10-09T15:23:05;9.70;;;5.30;;
82163;SDS011;71736;38.734;-9.138;2023-10-09T15:25:31;12.80;;;5.70;;
82163;SDS011;71736;38.734;-9.138;2023-10-09T15:27:56;11.80;;;5.80;;
82163;SDS011;71736;38.734;-9.138;2023-10-09T15:30:25;8.40;;;5.80;;
82163;SDS011;71736;38.734;-9.138;2023-10-09T15:32:53;9.70;;;5.10;;
82163;SDS011;71736;38.734;-9.138;2023-10-09T15:35:22;12.30;;;6.20;;
82163;SDS011;71736;38.734;-9.138;2023-10-09T15:37:48;9.30;;;5.70;;
82163;SDS011;71736;38.734;-9.138;2023-10-09T15:40:13;11.60;;;6.00;;
82163;SDS011;71736;38.734;-9.138;2023-10-09T15:42:43;9.20;;;5.60;;
82163;SDS011;71736;38.734;-9.138;2023-10-09T15:45:15;8.80;;;5.30;;
82163;SDS011;71736;38.734;-9.138;2023-10-09T15:47:41;10.60;;;5.20;;
82163;SDS011;71736;38.734;-9.138;2023-10-09T15:50:08;8.00;;;4.40;;
82163;SDS011;71736;38.734;-9.138;2023-10-09T15:52:34;10.40;;;5.50;;